createdAt,value
2019-05-30T00:01:57.013Z,0
2019-05-30T00:04:30.766Z,0
2019-05-30T00:09:34.765Z,0
2019-05-30T00:12:07.112Z,0
2019-05-30T00:14:39.578Z,0
2019-05-30T00:17:12.372Z,0
2019-05-30T00:19:45.063Z,0
2019-05-30T00:22:17.386Z,0
2019-05-30T00:27:21.106Z,0
2019-05-30T00:29:53.296Z,0
2019-05-30T00:32:25.811Z,1.2
2019-05-30T00:34:59.820Z,1.2
2019-05-30T00:37:32.335Z,1.2
2019-05-30T00:40:06.131Z,1.2
2019-05-30T00:42:38.482Z,0
2019-05-30T00:45:22.038Z,0
2019-05-30T00:47:51.896Z,0
2019-05-30T00:50:24.276Z,0
2019-05-30T00:52:57.159Z,2.5
2019-05-30T00:55:29.375Z,2.5
2019-05-30T00:58:03.082Z,0
2019-05-30T01:00:44.985Z,0
2019-05-30T01:03:16.738Z,0
2019-05-30T01:05:49.084Z,0
2019-05-30T01:08:21.435Z,0
2019-05-30T01:10:53.717Z,0
2019-05-30T01:13:26.335Z,0
2019-05-30T01:16:00.693Z,0
2019-05-30T01:18:33.550Z,0
2019-05-30T01:21:07.322Z,0
2019-05-30T01:23:39.851Z,0
2019-05-30T01:26:12.099Z,0
2019-05-30T01:28:44.519Z,0
2019-05-30T01:31:25.925Z,0
2019-05-30T01:34:01.517Z,0
2019-05-30T01:36:35.407Z,1.2
2019-05-30T01:39:09.251Z,1.2
2019-05-30T01:41:43.113Z,0
2019-05-30T01:44:16.972Z,0
2019-05-30T01:46:50.736Z,0
2019-05-30T01:49:24.774Z,0
2019-05-30T01:52:00.480Z,1.2
2019-05-30T01:54:34.346Z,1.2
2019-05-30T01:57:09.283Z,0
2019-05-30T01:59:43.359Z,0
2019-05-30T02:02:17.180Z,0
2019-05-30T02:04:50.962Z,0
2019-05-30T02:07:24.733Z,0
2019-05-30T02:10:00.837Z,2.5
2019-05-30T02:12:34.917Z,1.2
2019-05-30T02:15:10.623Z,2.5
2019-05-30T02:17:44.636Z,2.5
2019-05-30T02:20:18.914Z,0
2019-05-30T02:22:52.683Z,0
2019-05-30T02:25:26.544Z,0
2019-05-30T02:28:01.996Z,0
2019-05-30T02:30:35.877Z,1.2
2019-05-30T02:33:13.567Z,2.5
2019-05-30T02:35:47.772Z,2.5
2019-05-30T02:38:21.635Z,2.5
2019-05-30T02:40:55.690Z,0
2019-05-30T02:43:29.475Z,0
2019-05-30T02:46:12.765Z,0
2019-05-30T02:49:09.034Z,0
2019-05-30T02:51:28.822Z,0
2019-05-30T02:54:13.552Z,0
2019-05-30T02:56:45.310Z,0
2019-05-30T02:59:19.169Z,1.2
2019-05-30T03:02:17.762Z,1.2
2019-05-30T03:04:35.875Z,1.2
2019-05-30T03:07:13.550Z,1.2
2019-05-30T03:09:45.881Z,1.2
2019-05-30T03:12:18.518Z,0
2019-05-30T03:14:50.952Z,0
2019-05-30T03:17:23.567Z,0
2019-05-30T03:19:56.089Z,0
2019-05-30T03:22:28.979Z,1.2
2019-05-30T03:25:15.910Z,2.5
2019-05-30T03:27:43.373Z,2.5
2019-05-30T03:31:31.196Z,0
2019-05-30T03:34:29.711Z,0
2019-05-30T03:36:47.753Z,0
2019-05-30T03:39:21.827Z,0
2019-05-30T03:41:55.667Z,0
2019-05-30T03:44:29.643Z,0
2019-05-30T03:47:13.299Z,0
2019-05-30T03:49:46.154Z,0
2019-05-30T03:52:20.074Z,0
2019-05-30T03:54:54.118Z,0
2019-05-30T03:57:28.057Z,0
2019-05-30T04:00:02.241Z,0
2019-05-30T04:03:00.046Z,0
2019-05-30T04:05:20.214Z,0
2019-05-30T04:07:54.142Z,0
2019-05-30T04:10:28.617Z,0
2019-05-30T04:13:02.656Z,0
2019-05-30T04:15:36.947Z,0
2019-05-30T04:18:17.102Z,0
2019-05-30T04:20:49.825Z,0
2019-05-30T04:23:22.300Z,0
2019-05-30T04:25:57.602Z,2.5
2019-05-30T04:28:32.529Z,2.5
2019-05-30T04:31:05.085Z,1.2
2019-05-30T04:33:37.578Z,0
2019-05-30T04:36:14.820Z,1.2
2019-05-30T04:38:48.017Z,1.2
2019-05-30T04:41:21.818Z,3.7
2019-05-30T04:43:54.255Z,2.5
2019-05-30T04:46:27.144Z,2.5
2019-05-30T04:48:59.528Z,2.5
2019-05-30T04:51:32.156Z,2.5
2019-05-30T04:54:04.514Z,1.2
2019-05-30T04:56:37.251Z,1.2
2019-05-30T04:59:17.081Z,2.5
2019-05-30T05:01:50.270Z,2.5
2019-05-30T05:04:22.903Z,2.5
2019-05-30T05:06:55.620Z,2.5
2019-05-30T05:09:28.088Z,0
2019-05-30T05:12:01.037Z,0
2019-05-30T05:14:33.494Z,1.2
2019-05-30T05:17:06.447Z,1.2
2019-05-30T05:19:38.853Z,2.5
2019-05-30T05:22:12.788Z,1.2
2019-05-30T05:24:45.102Z,2.5
2019-05-30T05:27:19.436Z,2.5
2019-05-30T05:29:51.850Z,1.2
2019-05-30T05:31:25.577Z,1.2
2019-05-30T05:33:59.383Z,2.5
2019-05-30T05:36:33.115Z,3.7
2019-05-30T05:39:07.410Z,2.5
2019-05-30T05:41:39.808Z,2.5
2019-05-30T05:44:12.353Z,1.2
2019-05-30T05:46:44.639Z,1.2
2019-05-30T05:49:18.315Z,1.2
2019-05-30T05:51:51.243Z,1.2
2019-05-30T05:54:25.328Z,2.5
2019-05-30T05:56:57.588Z,2.5
2019-05-30T05:59:30.031Z,1.2
2019-05-30T06:02:02.432Z,1.2
2019-05-30T06:04:34.999Z,4.9
2019-05-30T06:07:07.293Z,4.9
2019-05-30T06:09:39.754Z,3.7
2019-05-30T06:12:12.004Z,2.5
2019-05-30T06:14:44.510Z,2.5
2019-05-30T06:17:19.142Z,2.5
2019-05-30T06:19:51.503Z,2.5
2019-05-30T06:22:24.281Z,2.5
2019-05-30T06:24:56.761Z,2.5
2019-05-30T06:27:29.036Z,2.5
2019-05-30T06:30:01.896Z,0
2019-05-30T06:32:34.514Z,0
2019-05-30T06:35:06.984Z,3.7
2019-05-30T06:37:39.367Z,3.7
2019-05-30T06:40:12.020Z,1.2
2019-05-30T06:42:44.242Z,1.2
2019-05-30T06:45:16.607Z,1.2
2019-05-30T06:47:48.982Z,1.2
2019-05-30T06:50:22.684Z,1.2
2019-05-30T06:52:55.056Z,2.5
2019-05-30T06:55:29.408Z,3.7
2019-05-30T06:58:01.820Z,3.7
2019-05-30T07:00:34.708Z,6.1
2019-05-30T07:03:07.410Z,6.1
2019-05-30T07:05:42.646Z,3.7
2019-05-30T07:08:15.226Z,3.7
2019-05-30T07:10:48.154Z,3.7
2019-05-30T07:13:20.519Z,1.2
2019-05-30T07:15:53.289Z,1.2
2019-05-30T07:18:27.171Z,1.2
2019-05-30T07:21:00.204Z,1.2
2019-05-30T07:23:33.930Z,2.5
2019-05-30T07:26:06.367Z,4.9
2019-05-30T07:28:39.030Z,4.9
2019-05-30T07:31:30.089Z,4.9
2019-05-30T07:34:04.283Z,2.5
2019-05-30T07:36:38.158Z,1.2
2019-05-30T07:39:12.134Z,2.5
2019-05-30T07:41:56.421Z,2.5
2019-05-30T07:44:29.461Z,2.5
2019-05-30T07:47:03.302Z,2.5
2019-05-30T07:49:39.017Z,3.7
2019-05-30T07:52:12.921Z,9.8
2019-05-30T07:54:46.754Z,6.1
2019-05-30T07:57:20.715Z,6.1
2019-05-30T07:59:54.651Z,2.5
2019-05-30T08:02:31.258Z,2.5
2019-05-30T08:05:24.428Z,1.2
2019-05-30T08:07:47.933Z,1.2
2019-05-30T08:10:22.600Z,4.9
2019-05-30T08:12:56.428Z,3.7
2019-05-30T08:15:31.700Z,3.7
2019-05-30T08:18:06.044Z,3.7
2019-05-30T08:20:39.895Z,2.5
2019-05-30T08:23:13.653Z,3.7
2019-05-30T08:25:47.484Z,0
2019-05-30T08:28:21.522Z,0
2019-05-30T08:30:57.688Z,3.7
2019-05-30T08:33:35.485Z,1.2
2019-05-30T08:36:09.473Z,1.2
2019-05-30T08:38:43.297Z,1.2
2019-05-30T08:41:17.170Z,2.5
2019-05-30T08:43:51.108Z,3.7
2019-05-30T08:46:25.141Z,2.5
2019-05-30T08:49:02.550Z,2.5
2019-05-30T08:51:36.965Z,1.2
2019-05-30T08:54:14.740Z,2.5
2019-05-30T08:56:48.757Z,2.5
2019-05-30T08:59:22.920Z,4.9
2019-05-30T09:01:55.490Z,4.9
2019-05-30T09:04:28.029Z,0
2019-05-30T09:07:00.377Z,0
2019-05-30T09:09:32.717Z,2.5
2019-05-30T09:12:05.483Z,2.5
2019-05-30T09:14:43.139Z,6.1
2019-05-30T09:17:15.611Z,6.1
2019-05-30T09:19:49.564Z,3.7
2019-05-30T09:22:21.770Z,3.7
2019-05-30T09:24:54.220Z,0
2019-05-30T09:27:26.651Z,0
2019-05-30T09:29:59.305Z,2.5
2019-05-30T09:31:26.071Z,2.5
2019-05-30T09:33:59.910Z,1.2
2019-05-30T09:36:34.191Z,4.9
2019-05-30T09:39:07.931Z,6.1
2019-05-30T09:41:45.605Z,6.1
2019-05-30T09:44:19.810Z,3.7
2019-05-30T09:46:53.977Z,3.7
2019-05-30T09:49:27.792Z,3.7
2019-05-30T09:52:02.272Z,3.7
2019-05-30T09:54:36.136Z,1.2
2019-05-30T09:57:10.089Z,1.2
2019-05-30T09:59:50.557Z,6.1
2019-05-30T10:02:24.784Z,6.1
2019-05-30T10:04:57.346Z,3.7
2019-05-30T10:07:30.605Z,3.7
2019-05-30T10:10:03.224Z,4.9
2019-05-30T10:12:35.699Z,4.9
2019-05-30T10:15:08.171Z,2.5
2019-05-30T10:17:40.901Z,2.5
2019-05-30T10:20:13.408Z,3.7
2019-05-30T10:22:54.035Z,3.7
2019-05-30T10:25:26.441Z,3.7
2019-05-30T10:27:58.901Z,3.7
2019-05-30T10:30:31.317Z,3.7
2019-05-30T10:33:03.931Z,8.6
2019-05-30T10:35:36.363Z,3.7
2019-05-30T10:38:09.242Z,3.7
2019-05-30T10:40:41.621Z,3.7
2019-05-30T10:43:14.111Z,4.9
2019-05-30T10:45:51.344Z,2.5
2019-05-30T10:48:24.259Z,2.5
2019-05-30T10:50:57.167Z,4.9
2019-05-30T10:53:31.943Z,3.7
2019-05-30T10:56:04.607Z,6.1
2019-05-30T10:58:37.741Z,6.1
2019-05-30T11:01:10.753Z,6.1
2019-05-30T11:03:43.463Z,2.5
2019-05-30T11:06:16.135Z,8.6
2019-05-30T11:08:51.070Z,8.6
2019-05-30T11:11:23.983Z,4.9
2019-05-30T11:13:58.175Z,4.9
2019-05-30T11:16:31.907Z,2.5
2019-05-30T11:19:09.109Z,2.5
2019-05-30T11:21:43.090Z,2.5
2019-05-30T11:24:18.981Z,3.7
2019-05-30T11:26:59.147Z,3.7
2019-05-30T11:29:36.446Z,1.2
2019-05-30T11:31:30.757Z,1.2
2019-05-30T11:34:06.347Z,7.3
2019-05-30T11:36:41.067Z,6.1
2019-05-30T11:39:15.548Z,0
2019-05-30T11:41:51.490Z,0
2019-05-30T11:44:25.630Z,4.9
2019-05-30T11:47:00.655Z,4.9
2019-05-30T11:49:42.607Z,6.1
2019-05-30T11:52:22.773Z,6.1
2019-05-30T11:55:01.662Z,2.5
2019-05-30T11:57:41.907Z,2.5
2019-05-30T12:00:19.934Z,2.5
2019-05-30T12:03:00.570Z,2.5
2019-05-30T12:05:41.287Z,4.9
2019-05-30T12:08:19.098Z,4.9
2019-05-30T12:10:57.326Z,4.9
2019-05-30T12:13:33.420Z,7.3
2019-05-30T12:16:07.021Z,4.9
2019-05-30T12:18:41.204Z,4.9
2019-05-30T12:21:15.331Z,2.5
2019-05-30T12:23:49.160Z,4.9
2019-05-30T12:26:22.054Z,4.9
2019-05-30T12:28:55.940Z,1.2
2019-05-30T12:31:28.593Z,1.2
2019-05-30T12:34:02.893Z,4.9
2019-05-30T12:36:35.599Z,4.9
2019-05-30T12:39:08.411Z,2.5
2019-05-30T12:41:40.876Z,2.5
2019-05-30T12:44:13.624Z,3.7
2019-05-30T12:46:46.025Z,3.7
2019-05-30T12:49:18.599Z,3.7
2019-05-30T12:51:51.219Z,3.7
2019-05-30T12:54:23.904Z,4.9
2019-05-30T12:56:58.417Z,4.9
2019-05-30T12:59:31.732Z,1.2
2019-05-30T13:02:04.213Z,1.2
2019-05-30T13:04:36.714Z,4.9
2019-05-30T13:07:09.138Z,4.9
2019-05-30T13:09:41.944Z,2.5
2019-05-30T13:12:14.332Z,2.5
2019-05-30T13:14:46.964Z,3.7
2019-05-30T13:17:19.361Z,3.7
2019-05-30T13:19:52.125Z,3.7
2019-05-30T13:22:24.608Z,3.7
2019-05-30T13:24:59.822Z,1.2
2019-05-30T13:27:32.347Z,1.2
2019-05-30T13:31:26.280Z,3.7
2019-05-30T13:34:03.330Z,2.5
2019-05-30T13:36:37.283Z,2.5
2019-05-30T13:39:11.319Z,0
2019-05-30T13:41:45.765Z,0
2019-05-30T13:44:19.805Z,2.5
2019-05-30T13:46:55.852Z,2.5
2019-05-30T13:49:31.027Z,0
2019-05-30T13:52:07.122Z,0
2019-05-30T13:54:39.744Z,3.7
2019-05-30T13:57:12.427Z,3.7
2019-05-30T13:59:45.130Z,2.5
2019-05-30T14:02:18.239Z,2.5
2019-05-30T14:04:51.015Z,3.7
2019-05-30T14:07:24.018Z,3.7
2019-05-30T14:09:57.009Z,2.5
2019-05-30T14:12:29.839Z,2.5
2019-05-30T14:15:14.880Z,1.2
2019-05-30T14:17:44.167Z,1.2
2019-05-30T14:20:16.751Z,1.2
2019-05-30T14:22:49.697Z,0
2019-05-30T14:25:22.203Z,0
2019-05-30T14:27:55.103Z,0
2019-05-30T14:30:27.646Z,2.5
2019-05-30T14:33:02.217Z,0
2019-05-30T14:35:34.857Z,0
2019-05-30T14:38:09.055Z,1.2
2019-05-30T14:40:41.621Z,1.2
2019-05-30T14:43:15.021Z,1.2
2019-05-30T14:45:47.511Z,1.2
2019-05-30T14:48:20.464Z,2.5
2019-05-30T14:50:53.033Z,2.5
2019-05-30T14:53:25.510Z,2.5
2019-05-30T14:55:57.813Z,2.5
2019-05-30T14:58:30.365Z,2.5
2019-05-30T15:01:02.915Z,2.5
2019-05-30T15:03:35.888Z,1.2
2019-05-30T15:06:18.114Z,1.2
2019-05-30T15:08:49.289Z,1.2
2019-05-30T15:11:21.795Z,1.2
2019-05-30T15:13:54.303Z,2.5
2019-05-30T15:16:26.745Z,2.5
2019-05-30T15:18:59.324Z,2.5
2019-05-30T15:21:31.723Z,2.5
2019-05-30T15:24:04.194Z,1.2
2019-05-30T15:26:36.573Z,1.2
2019-05-30T15:29:10.387Z,2.5
2019-05-30T15:31:26.767Z,2.5
2019-05-30T15:34:01.062Z,2.5
2019-05-30T15:36:35.335Z,2.5
2019-05-30T15:39:09.100Z,2.5
2019-05-30T15:41:41.542Z,2.5
2019-05-30T15:44:14.329Z,2.5
2019-05-30T15:46:47.220Z,2.5
2019-05-30T15:49:20.238Z,2.5
2019-05-30T15:51:52.847Z,2.5
2019-05-30T15:54:25.369Z,3.7
2019-05-30T15:56:57.916Z,3.7
2019-05-30T15:59:30.605Z,2.5
2019-05-30T16:02:03.332Z,2.5
2019-05-30T16:04:35.976Z,6.1
2019-05-30T16:07:08.609Z,6.1
2019-05-30T16:09:48.144Z,4.9
2019-05-30T16:12:22.016Z,4.9
2019-05-30T16:14:54.714Z,6.1
2019-05-30T16:17:27.270Z,6.1
2019-05-30T16:19:59.931Z,6.1
2019-05-30T16:22:32.518Z,6.1
2019-05-30T16:25:05.053Z,6.1
2019-05-30T16:27:38.141Z,6.1
2019-05-30T16:30:17.279Z,3.7
2019-05-30T16:32:51.586Z,4.9
2019-05-30T16:35:24.344Z,4.9
2019-05-30T16:37:56.969Z,4.9
2019-05-30T16:40:29.509Z,2.5
2019-05-30T16:43:02.252Z,3.7
2019-05-30T16:45:34.932Z,3.7
2019-05-30T16:48:07.955Z,6.1
2019-05-30T16:50:40.546Z,6.1
2019-05-30T16:53:13.303Z,4.9
2019-05-30T16:55:46.683Z,4.9
2019-05-30T16:58:23.461Z,6.1
2019-05-30T17:00:56.206Z,6.1
2019-05-30T17:03:28.957Z,3.7
2019-05-30T17:06:02.174Z,3.7
2019-05-30T17:08:36.673Z,2.5
2019-05-30T17:11:09.139Z,2.5
2019-05-30T17:13:41.913Z,4.9
2019-05-30T17:16:14.334Z,4.9
2019-05-30T17:18:46.929Z,4.9
2019-05-30T17:21:23.054Z,4.9
2019-05-30T17:23:56.261Z,1.2
2019-05-30T17:26:28.890Z,1.2
2019-05-30T17:29:01.631Z,1.2
2019-05-30T17:31:28.831Z,1.2
2019-05-30T17:34:02.991Z,2.5
2019-05-30T17:36:35.850Z,2.5
2019-05-30T17:39:08.676Z,0
2019-05-30T17:41:41.006Z,0
2019-05-30T17:44:13.631Z,3.7
2019-05-30T17:46:45.839Z,3.7
2019-05-30T17:49:19.687Z,2.5
2019-05-30T17:51:53.711Z,2.5
2019-05-30T17:54:27.935Z,1.2
2019-05-30T17:57:01.745Z,1.2
2019-05-30T17:59:35.137Z,2.5
2019-05-30T18:02:07.399Z,2.5
2019-05-30T18:04:39.890Z,3.7
2019-05-30T18:07:12.647Z,3.7
2019-05-30T18:09:45.114Z,2.5
2019-05-30T18:12:17.407Z,2.5
2019-05-30T18:14:50.046Z,1.2
2019-05-30T18:17:25.464Z,1.2
2019-05-30T18:19:58.702Z,1.2
2019-05-30T18:22:33.088Z,1.2
2019-05-30T18:25:05.692Z,4.9
2019-05-30T18:27:38.035Z,4.9
2019-05-30T18:30:10.727Z,3.7
2019-05-30T18:32:43.187Z,3.7
2019-05-30T18:35:15.592Z,3.7
2019-05-30T18:37:48.194Z,3.7
2019-05-30T18:40:20.890Z,6.1
2019-05-30T18:42:53.237Z,2.5
2019-05-30T18:45:25.892Z,2.5
2019-05-30T18:47:59.460Z,2.5
2019-05-30T18:50:35.330Z,1.2
2019-05-30T18:53:07.863Z,2.5
2019-05-30T18:55:39.825Z,2.5
2019-05-30T18:58:11.928Z,2.5
2019-05-30T19:00:44.742Z,2.5
2019-05-30T19:03:16.790Z,2.5
2019-05-30T19:05:49.321Z,2.5
2019-05-30T19:08:21.445Z,2.5
2019-05-30T19:10:53.773Z,2.5
2019-05-30T19:13:25.578Z,1.2
2019-05-30T19:15:57.541Z,1.2
2019-05-30T19:18:30.167Z,2.5
2019-05-30T19:21:01.933Z,2.5
2019-05-30T19:23:40.228Z,1.2
2019-05-30T19:26:12.372Z,1.2
2019-05-30T19:28:44.244Z,3.7
2019-05-30T19:31:28.227Z,3.7
2019-05-30T19:34:02.487Z,1.2
2019-05-30T19:36:37.794Z,1.2
2019-05-30T19:39:10.215Z,1.2
2019-05-30T19:41:58.242Z,1.2
2019-05-30T19:44:23.468Z,1.2
2019-05-30T19:46:56.144Z,1.2
2019-05-30T19:49:30.049Z,3.7
2019-05-30T19:52:03.371Z,3.7
2019-05-30T19:54:37.449Z,2.5
2019-05-30T19:57:10.035Z,2.5
2019-05-30T19:59:42.408Z,0
2019-05-30T20:02:14.998Z,0
2019-05-30T20:04:47.384Z,0
2019-05-30T20:07:19.758Z,0
2019-05-30T20:10:02.583Z,0
2019-05-30T20:12:33.721Z,2.5
2019-05-30T20:15:07.260Z,1.2
2019-05-30T20:17:42.098Z,2.5
2019-05-30T20:20:14.541Z,2.5
2019-05-30T20:22:47.004Z,1.2
2019-05-30T20:25:20.191Z,2.5
2019-05-30T20:27:52.754Z,3.7
2019-05-30T20:30:25.291Z,3.7
2019-05-30T20:32:57.832Z,2.5
2019-05-30T20:35:32.182Z,2.5
2019-05-30T20:38:05.954Z,1.2
2019-05-30T20:40:38.988Z,1.2
2019-05-30T20:43:11.388Z,0
2019-05-30T20:45:50.520Z,0
2019-05-30T20:48:22.419Z,1.2
2019-05-30T20:50:54.201Z,1.2
2019-05-30T20:53:26.232Z,1.2
2019-05-30T20:55:59.003Z,1.2
2019-05-30T20:58:31.195Z,1.2
2019-05-30T21:01:03.000Z,1.2
2019-05-30T21:03:37.222Z,0
2019-05-30T21:06:09.194Z,0
2019-05-30T21:08:43.362Z,0
2019-05-30T21:11:15.634Z,4.9
2019-05-30T21:13:47.754Z,1.2
2019-05-30T21:16:19.813Z,1.2
2019-05-30T21:18:51.975Z,1.2
2019-05-30T21:21:23.942Z,1.2
2019-05-30T21:23:55.943Z,1.2
2019-05-30T21:26:28.353Z,1.2
2019-05-30T21:29:00.225Z,1.2
2019-05-30T21:31:26.259Z,1.2
2019-05-30T21:34:00.511Z,0
2019-05-30T21:36:34.711Z,0
2019-05-30T21:39:08.541Z,0
2019-05-30T21:41:44.688Z,0
2019-05-30T21:44:18.538Z,0
2019-05-30T21:46:52.447Z,1.2
2019-05-30T21:49:26.479Z,1.2
2019-05-30T21:52:00.584Z,0
2019-05-30T21:54:35.371Z,1.2
2019-05-30T21:57:10.034Z,1.2
2019-05-30T21:59:46.088Z,1.2
2019-05-30T22:02:20.586Z,1.2
2019-05-30T22:04:54.406Z,1.2
2019-05-30T22:07:28.446Z,1.2
2019-05-30T22:10:03.124Z,0
2019-05-30T22:12:36.989Z,0
2019-05-30T22:15:11.043Z,0
2019-05-30T22:17:46.177Z,0
2019-05-30T22:20:19.938Z,1.2
2019-05-30T22:22:54.140Z,1.2
2019-05-30T22:25:26.674Z,0
2019-05-30T22:27:59.398Z,0
2019-05-30T22:30:31.688Z,1.2
2019-05-30T22:33:04.152Z,0
2019-05-30T22:35:36.639Z,0
2019-05-30T22:38:09.011Z,0
2019-05-30T22:40:41.316Z,0
2019-05-30T22:43:26.252Z,1.2
2019-05-30T22:45:54.705Z,1.2
2019-05-30T22:48:27.157Z,2.5
2019-05-30T22:50:59.617Z,2.5
2019-05-30T22:53:32.327Z,1.2
2019-05-30T22:56:04.591Z,1.2
2019-05-30T22:58:37.807Z,1.2
2019-05-30T23:01:10.202Z,1.2
2019-05-30T23:03:42.869Z,1.2
2019-05-30T23:06:15.133Z,1.2
2019-05-30T23:08:50.289Z,0
2019-05-30T23:11:23.209Z,0
2019-05-30T23:13:56.947Z,0
2019-05-30T23:16:29.471Z,0
2019-05-30T23:19:02.708Z,0
2019-05-30T23:21:35.242Z,0
2019-05-30T23:24:08.248Z,0
2019-05-30T23:26:41.021Z,0
2019-05-30T23:29:14.362Z,0
2019-05-30T23:31:26.459Z,0
2019-05-30T23:34:00.355Z,0
2019-05-30T23:36:34.095Z,0
2019-05-30T23:39:07.961Z,0
2019-05-30T23:41:42.402Z,0
2019-05-30T23:44:16.608Z,0
2019-05-30T23:46:51.125Z,0
2019-05-30T23:49:23.663Z,0
2019-05-30T23:51:58.539Z,0
2019-05-30T23:54:30.725Z,0
2019-05-30T23:57:03.509Z,0
2019-05-30T23:59:36.222Z,0
